Humidity-temperature Sensor

Selected Measurement Type: Air Temperature

 
Air Temperature [°C]     6 entries per hour
Showing data from 11/11/2014 (00:00:00 Z) to 11/10/2014 (00:01:00 Z)
Previous Next [ Day | 3-Days | 7-Days ]
First Last
Prev [ Day | 3-Days | 7-Days ] Next
First Last

Start Time:     :
End Time:     :     
Time (in GMT) :00 :50 :40 :30 :20 :10
Previous Next [ Day | 3-Days | 7-Days ]
First Last
Prev [ Day | 3-Days | 7-Days ] Next
First Last


123 => good data
MM => data is determined as missing
-- => data not received/configured
Back to Top Back to Top
11/11/2014 00:00 to 23:10 22.50 22.89 22.71 22.76 22.75 22.87
11/10/2014 23:00 to 22:10 22.91 22.86 22.86 23.06 23.16 23.06
11/10/2014 22:00 to 21:10 23.08 22.86 22.89 22.88 22.87 22.78
11/10/2014 21:00 to 20:10 22.74 22.82 22.81 22.77 22.80 22.87
11/10/2014 20:00 to 19:10 22.88 22.86 22.93 22.85 22.85 22.92
11/10/2014 19:00 to 18:10 22.80 22.67 22.73 22.68 22.66 22.70
11/10/2014 18:00 to 17:10 22.66 22.76 22.69 22.66 22.72 22.63
11/10/2014 17:00 to 16:10 22.61 22.83 22.75 22.74 22.88 22.71
11/10/2014 16:00 to 15:10 22.75 22.82 22.68 22.65 22.66 22.56
11/10/2014 15:00 to 14:10 22.73 22.83 22.69 22.42 22.34 22.36
11/10/2014 14:00 to 13:10 22.49 22.39 22.39 22.31 22.23 22.27
11/10/2014 13:00 to 12:10 22.18 22.22 22.27 22.08 22.06 22.08
11/10/2014 12:00 to 11:10 22.08 22.11 21.99 22.08 22.17 22.11
11/10/2014 11:00 to 10:10 22.01 22.10 22.05 22.08 22.00 22.02
11/10/2014 10:00 to 9:10 22.10 22.05 22.06 21.99 22.00 21.97
11/10/2014 09:00 to 8:10 21.91 22.00 22.01 21.91 21.90 22.03
11/10/2014 08:00 to 7:10 22.00 21.97 21.99 21.92 21.97 22.07
11/10/2014 07:00 to 6:10 22.13 22.06 22.02 22.03 22.14 22.10
11/10/2014 06:00 to 5:10 22.08 22.22 22.16 22.19 22.16 22.13
11/10/2014 05:00 to 4:10 22.12 22.18 22.12 22.26 22.21 22.20
11/10/2014 04:00 to 3:10 22.20 22.26 22.21 22.27 22.23 22.30
11/10/2014 03:00 to 2:10 22.26 22.28 22.38 22.36 22.32 22.25
11/10/2014 02:00 to 1:10 22.26 22.39 22.32 22.42 22.29 22.37
11/10/2014 01:00 to 0:10 22.45 22.31 22.46 22.40 22.32 22.47